Home   Weather   France   Caen   Past weeks
Flag for France

Past Weather in Caen, Calvados, France — Yesterday and Last 2 Weeks

Currently: 30 °F. Clear. (Weather station: Caen Airport, France). See more current weather

Past Weather in Caen — Graph

°F

Caen Temperature Yesterday

Maximum temperature yesterday: 46 °F (at 4:00 pm)
Minimum temperature yesterday: 25 °F (at 8:30 am)
Average temperature yesterday: 34 °F

High & Low Weather Summary for the Past Weeks

 TemperatureHumidityPressure
High52 °F (Feb 2, 3:00 pm)100% (Jan 25, 10:30 pm)30.83 "Hg (Jan 25, 10:30 pm)
Low25 °F (Feb 8, 8:30 am)46% (Feb 8, 4:30 pm)30.27 "Hg (Jan 26, 2:00 am)
Average42 °F84%30.50 "Hg
* Reported Jan 25 4:00 am — Feb 9 4:00 am, Caen. Weather by CustomWeather, © 2023

Note: Actual official high and low records may vary slightly from our data, if they occured in-between our weather recording intervals... More about our weather records

Caen Weather History for the Previous 24 Hours

Scroll right to see more
 ConditionsComfort  
Time TempWeatherWind HumidityBarometerVisibility
4:00 am
Thu, Feb 9
30 °FClear.8 mph93%30.45 "Hg6 mi
3:30 am30 °FClear.6 mph93%30.45 "Hg5 mi
3:00 am30 °FClear.3 mph86%30.45 "Hg5 mi
2:30 am30 °FClear.3 mph86%30.45 "Hg5 mi
2:00 am28 °FClear.2 mph93%30.48 "Hg4 mi
12:30 am28 °FIce fog.5 mph93%30.48 "Hg3 mi
12:00 am30 °FClear.2 mph93%30.48 "Hg4 mi
11:00 pm
Wed, Feb 8
30 °FClear.2 mph93%30.48 "Hg4 mi
10:30 pm30 °FClear.3 mph93%30.48 "Hg4 mi
10:00 pm32 °FClear.5 mph87%30.48 "Hg4 mi
9:30 pm32 °FClear.5 mph93%30.45 "Hg5 mi
9:00 pm30 °FClear.3 mph93%30.48 "Hg4 mi
8:30 pm30 °FClear.3 mph86%30.48 "Hg4 mi
8:00 pm34 °FClear.7 mph87%30.45 "Hg10 mi
7:30 pm34 °FClear.5 mph81%30.45 "Hg10 mi
7:00 pm37 °FClear.1 mph81%30.48 "Hg10 mi
6:30 pm39 °FClear.3 mph75%30.48 "Hg10 mi
6:00 pm41 °FPassing clouds.6 mph70%30.48 "HgN/A
5:00 pm45 °FSunny.5 mph57%30.48 "Hg10 mi
4:30 pm46 °FSunny.1 mph46%30.48 "Hg10 mi
4:00 pm46 °FSunny.2 mph50%30.48 "Hg10 mi
3:30 pm45 °FPassing clouds.5 mph53%30.48 "HgN/A
3:00 pm45 °FClear.5 mph53%30.51 "HgN/A
2:30 pm45 °FPassing clouds.6 mph53%30.51 "HgN/A
2:00 pm45 °FPassing clouds.5 mph53%30.54 "HgN/A
1:00 pm43 °FPassing clouds.5 mph61%30.54 "HgN/A
12:30 pm41 °FPassing clouds.5 mph66%30.57 "HgN/A
12:00 pm39 °FPassing clouds.3 mph75%30.57 "HgN/A
11:00 am36 °FClear.3 mph81%30.57 "Hg6 mi
10:30 am34 °FClear.3 mph81%30.57 "Hg6 mi
10:00 am30 °FClear.3 mph93%30.57 "Hg4 mi
9:00 am27 °FClear.5 mph93%30.57 "Hg4 mi
8:30 am25 °FClear.3 mph93%30.57 "Hg5 mi
8:00 am27 °FClear.5 mph93%30.57 "Hg5 mi
7:00 am27 °FClear.5 mph93%30.57 "Hg4 mi
6:30 am27 °FClear.5 mph93%30.57 "Hg4 mi
6:00 am27 °FClear.3 mph93%30.57 "Hg4 mi
5:30 am28 °FClear.2 mph93%30.57 "Hg5 mi
5:00 am27 °FClear.1 mph93%30.60 "Hg5 mi
Weather by CustomWeather, © 2023

See weather overview